Latest Weather Observations for Esperance Harbour

IDW60801

Issued at 11:32 am WST Friday 4 September 2015 (issued every 30 minutes, with the page automatically refreshed every 10 minutes)

About weather observations | Map of weather stations | Latest weather observations for WA | Other Formats
Station Details ID: 109504 Name: ESPERANCE NTC AWS Lat: -33.87 Lon: 121.90 Height: 0.0 m
Data from the previous 72 hours. | See also: Recent months for locations in Western Australia
Date/Time
WST
Temp
°C
App
Temp
°C
Dew
Point
Rel
Hum
%
Delta-T
°C
Wind Press
QNH
hPa
Press
MSL
hPa
Rain
since 9 am
mm
Dir
 
Spd
km/h
Gust
km/h
Spd
kts
Gust
kts
04/11:30am 20.8 - - - - - - - - - 1016.2 1016.2 -
04/11:00am 19.9 - - - - - - - - - 1016.6 1016.6 -
04/10:30am 19.3 - - - - - - - - - 1017.0 1017.0 -
04/10:00am 18.5 - - - - - - - - - 1017.3 1017.3 -
04/09:30am 17.2 - - - - - - - - - 1017.6 1017.6 -
04/09:00am 15.8 - - - - - - - - - 1018.1 1018.1 -
04/08:30am 14.3 - - - - - - - - - 1018.7 1018.7 -
04/08:00am 13.3 - - - - - - - - - 1019.2 1019.2 -
04/07:30am 12.2 - - - - - - - - - 1019.1 1019.1 -
04/07:00am 11.6 - - - - - - - - - 1019.1 1019.1 -
04/06:30am 11.3 - - - - - - - - - 1019.1 1019.1 -
04/06:00am 11.2 - - - - - - - - - 1019.2 1019.2 -
04/05:30am 11.4 - - - - - - - - - 1019.3 1019.3 -
04/05:00am 11.8 - - - - - - - - - 1019.3 1019.3 -
04/04:30am 11.8 - - - - - - - - - 1019.3 1019.3 -
04/04:00am 12.0 - - - - - - - - - 1019.3 1019.3 -
04/03:30am 11.5 - - - - - - - - - 1019.5 1019.5 -
04/03:00am 11.6 - - - - - - - - - 1019.6 1019.6 -
04/02:30am 11.5 - - - - - - - - - 1020.0 1020.0 -
04/02:00am 11.2 - - - - - - - - - 1020.6 1020.6 -
04/01:30am 11.5 - - - - - - - - - 1021.3 1021.2 -
04/01:00am 11.8 - - - - - - - - - 1021.5 1021.4 -
04/12:30am 11.9 - - - - - - - - - 1021.9 1021.8 -
04/12:00am 12.3 - - - - - - - - - 1021.9 1021.8 -
 
Date/Time
WST
Temp
°C
App
Temp
°C
Dew
Point
Rel
Hum
%
Delta-T
°C
Wind Press
QNH
hPa
Press
MSL
hPa
Rain
since 9 am
mm
Dir
 
Spd
km/h
Gust
km/h
Spd
kts
Gust
kts
03/11:30pm 12.4 - - - - - - - - - 1022.2 1022.1 -
03/11:00pm 12.5 - - - - - - - - - 1022.4 1022.3 -
03/10:30pm 12.7 - - - - - - - - - 1022.7 1022.6 -
03/10:00pm 12.5 - - - - - - - - - 1023.0 1022.9 -
03/09:30pm 13.4 - - - - - - - - - 1023.4 1023.3 -
03/09:00pm 13.8 - - - - - - - - - 1023.8 1023.7 -
03/08:30pm 13.8 - - - - - - - - - 1024.2 1024.1 -
03/08:00pm 13.9 - - - - - - - - - 1024.3 1024.2 -
03/07:30pm 14.1 - - - - - - - - - 1024.5 1024.4 -
03/07:00pm 14.4 - - - - - - - - - 1024.5 1024.4 -
03/06:30pm 14.7 - - - - - - - - - 1024.4 1024.3 -
03/06:00pm 14.4 - - - - - - - - - 1024.0 1023.9 -
03/05:30pm 14.8 - - - - - - - - - 1023.9 1023.8 -
03/05:00pm 15.2 - - - - - - - - - 1024.0 1023.9 -
03/04:30pm 15.4 - - - - - - - - - 1024.1 1024.0 -
03/04:00pm 15.7 - - - - - - - - - 1024.3 1024.2 -
03/03:30pm 15.2 - - - - - - - - - 1024.2 1024.1 -
03/03:00pm 15.4 - - - - - - - - - 1023.9 1023.8 -
03/02:30pm 16.0 - - - - - - - - - 1023.8 1023.7 -
03/02:00pm 16.4 - - - - - - - - - 1023.6 1023.5 -
03/01:30pm 16.3 - - - - - - - - - 1024.1 1024.0 -
03/01:00pm 16.2 - - - - - - - - - 1024.3 1024.2 -
03/12:30pm 15.3 - - - - - - - - - 1024.7 1024.6 -
03/12:00pm 14.7 - - - - - - - - - 1025.3 1025.2 -
03/11:30am 14.1 - - - - - - - - - 1026.1 1026.0 -
03/11:00am 13.5 - - - - - - - - - 1026.5 1026.4 -
03/10:30am 12.9 - - - - - - - - - 1026.8 1026.7 -
03/10:00am 12.5 - - - - - - - - - 1027.3 1027.2 -
03/09:30am 11.7 - - - - - - - - - 1027.7 1027.6 -
03/09:00am 11.1 - - - - - - - - - 1028.1 1028.0 -
03/08:30am 10.1 - - - - - - - - - 1028.1 1028.0 -
03/08:00am 8.9 - - - - - - - - - 1028.0 1027.9 -
03/07:30am 7.6 - - - - - - - - - 1027.8 1027.7 -
03/07:00am 7.4 - - - - - - - - - 1027.6 1027.5 -
03/06:30am 6.7 - - - - - - - - - 1027.4 1027.3 -
03/06:00am 6.7 - - - - - - - - - 1027.2 1027.1 -
03/05:30am 6.7 - - - - - - - - - 1027.0 1026.9 -
03/05:00am 6.8 - - - - - - - - - 1026.8 1026.7 -
03/04:30am 7.0 - - - - - - - - - 1026.5 1026.4 -
03/04:00am 7.4 - - - - - - - - - 1026.3 1026.2 -
03/03:30am 7.6 - - - - - - - - - 1026.2 1026.1 -
03/03:00am 8.1 - - - - - - - - - 1026.1 1026.0 -
03/02:30am 8.1 - - - - - - - - - 1026.4 1026.3 -
03/02:00am 8.4 - - - - - - - - - 1026.5 1026.4 -
03/01:30am 8.4 - - - - - - - - - 1026.6 1026.5 -
03/01:00am 8.2 - - - - - - - - - 1026.8 1026.7 -
03/12:30am 8.3 - - - - - - - - - 1027.0 1026.9 -
03/12:00am 8.7 - - - - - - - - - 1027.2 1027.1 -
 
Date/Time
WST
Temp
°C
App
Temp
°C
Dew
Point
Rel
Hum
%
Delta-T
°C
Wind Press
QNH
hPa
Press
MSL
hPa
Rain
since 9 am
mm
Dir
 
Spd
km/h
Gust
km/h
Spd
kts
Gust
kts
02/11:30pm 9.4 - - - - - - - - - 1027.3 1027.2 -
02/11:00pm 10.0 - - - - - - - - - 1027.2 1027.1 -
02/10:30pm 9.9 - - - - - - - - - 1027.2 1027.1 -
02/10:00pm 10.5 - - - - - - - - - 1027.4 1027.3 -
02/09:30pm 10.8 - - - - - - - - - 1027.4 1027.3 -
02/09:00pm 11.6 - - - - - - - - - 1027.6 1027.5 -
02/08:30pm 11.1 - - - - - - - - - 1027.3 1027.2 -
02/08:00pm 11.7 - - - - - - - - - 1027.0 1026.9 -
02/07:30pm 12.1 - - - - - - - - - 1026.7 1026.6 -
02/07:00pm 12.0 - - - - - - - - - 1026.4 1026.3 -
02/06:30pm 11.9 - - - - - - - - - 1026.3 1026.2 -
02/06:00pm 11.7 - - - - - - - - - 1026.2 1026.1 -
02/05:30pm 11.9 - - - - - - - - - 1025.8 1025.7 -
02/05:00pm 12.3 - - - - - - - - - 1025.6 1025.5 -
02/04:30pm 12.8 - - - - - - - - - 1025.4 1025.3 -
02/04:00pm 12.6 - - - - - - - - - 1025.2 1025.1 -
02/03:30pm 13.1 - - - - - - - - - 1025.0 1024.9 -
02/03:00pm 12.3 - - - - - - - - - 1025.1 1025.0 -
02/02:30pm 11.2 - - - - - - - - - 1025.4 1025.3 -
02/02:00pm 12.9 - - - - - - - - - 1025.3 1025.2 -
02/01:30pm 12.5 - - - - - - - - - 1025.0 1024.9 -
02/01:00pm 12.0 - - - - - - - - - 1025.3 1025.2 -
02/12:30pm 13.3 - - - - - - - - - 1025.3 1025.2 -
02/12:00pm 13.5 - - - - - - - - - 1025.5 1025.4 -
02/11:30am 13.3 - - - - - - - - - 1025.7 1025.6 -
02/11:00am 13.7 - - - - - - - - - 1025.9 1025.8 -
02/10:30am 13.5 - - - - - - - - - 1025.9 1025.8 -
02/10:00am 12.7 - - - - - - - - - 1025.9 1025.8 -
02/09:30am 13.2 - - - - - - - - - 1025.8 1025.7 -
02/09:00am 12.7 - - - - - - - - - 1025.5 1025.4 -
02/08:30am 12.7 - - - - - - - - - 1025.3 1025.2 -
02/08:00am 11.3 - - - - - - - - - 1025.1 1025.0 -
02/07:30am 11.9 - - - - - - - - - 1024.5 1024.4 -
02/07:00am 11.3 - - - - - - - - - 1024.2 1024.1 -
02/06:30am 11.4 - - - - - - - - - 1023.9 1023.8 -
02/06:00am 10.8 - - - - - - - - - 1023.5 1023.4 -
02/05:30am 10.9 - - - - - - - - - 1023.5 1023.4 -
02/05:00am 11.9 - - - - - - - - - 1023.1 1023.0 -
02/04:30am 12.3 - - - - - - - - - 1022.7 1022.6 -
02/04:00am 12.2 - - - - - - - - - 1022.4 1022.3 -
02/03:30am 11.8 - - - - - - - - - 1022.2 1022.1 -
02/03:00am 11.8 - - - - - - - - - 1022.4 1022.3 -
02/02:30am 11.7 - - - - - - - - - 1022.3 1022.2 -
02/02:00am 11.8 - - - - - - - - - 1022.2 1022.1 -
02/01:30am 11.7 - - - - - - - - - 1022.4 1022.3 -
02/01:00am 11.5 - - - - - - - - - 1022.4 1022.3 -
02/12:30am 11.8 - - - - - - - - - 1022.3 1022.2 -
02/12:00am 11.8 - - - - - - - - - 1022.2 1022.1 -
 
Date/Time
WST
Temp
°C
App
Temp
°C
Dew
Point
Rel
Hum
%
Delta-T
°C
Wind Press
QNH
hPa
Press
MSL
hPa
Rain
since 9 am
mm
Dir
 
Spd
km/h
Gust
km/h
Spd
kts
Gust
kts
01/11:30pm 10.9 - - - - - - - - - 1022.3 1022.2 -
01/11:00pm 12.0 - - - - - - - - - 1022.1 1022.0 -
01/10:30pm 11.6 - - - - - - - - - 1022.3 1022.2 -
01/10:00pm 11.4 - - - - - - - - - 1022.4 1022.3 -
01/09:30pm 12.0 - - - - - - - - - 1022.2 1022.1 -
01/09:00pm 11.7 - - - - - - - - - 1022.0 1021.9 -
01/08:30pm 12.0 - - - - - - - - - 1021.8 1021.7 -
01/08:00pm 11.8 - - - - - - - - - 1021.4 1021.3 -
01/07:30pm 12.1 - - - - - - - - - 1020.9 1020.8 -
01/07:00pm 11.8 - - - - - - - - - 1020.5 1020.5 -
01/06:30pm 11.8 - - - - - - - - - 1020.0 1020.0 -
01/06:00pm 12.0 - - - - - - - - - 1019.5 1019.5 -
01/05:30pm 12.0 - - - - - - - - - 1019.0 1019.0 -
01/05:00pm 12.0 - - - - - - - - - 1018.7 1018.7 -
01/04:30pm 12.1 - - - - - - - - - 1018.2 1018.2 -
01/04:00pm 12.1 - - - - - - - - - 1018.0 1018.0 -
01/03:30pm 12.3 - - - - - - - - - 1017.4 1017.4 -
01/03:00pm 12.3 - - - - - - - - - 1017.3 1017.3 -
01/02:30pm 12.4 - - - - - - - - - 1016.6 1016.6 -
01/02:00pm 11.6 - - - - - - - - - 1016.5 1016.5 -
01/01:30pm 10.9 - - - - - - - - - 1016.5 1016.5 -
01/01:00pm 12.2 - - - - - - - - - 1015.8 1015.8 -
01/12:30pm 11.8 - - - - - - - - - 1015.6 1015.6 -
01/12:00pm 11.5 - - - - - - - - - 1015.4 1015.4 -

Other Formats:

Comma delimited format used in spreadsheet applications
http://www.bom.gov.au/fwo/IDW60801/IDW60801.95648.axf

JavaScript Object Notation format (JSON) in row-major order
http://www.bom.gov.au/fwo/IDW60801/IDW60801.95648.json